createdAt,value
2018-05-16T00:02:12.084Z,17.03
2018-05-16T00:04:39.463Z,17.57
2018-05-16T00:07:06.763Z,17.53
2018-05-16T00:09:34.047Z,16.93
2018-05-16T00:12:01.331Z,16.77
2018-05-16T00:14:28.641Z,17.93
2018-05-16T00:16:55.967Z,16.67
2018-05-16T00:19:23.234Z,16.10
2018-05-16T00:21:50.525Z,17.90
2018-05-16T00:24:17.801Z,16.70
2018-05-16T00:26:45.157Z,15.90
2018-05-16T00:29:12.445Z,16.50
2018-05-16T00:31:39.766Z,16.87
2018-05-16T00:34:07.106Z,16.23
2018-05-16T00:36:34.427Z,15.93
2018-05-16T00:39:01.706Z,15.00
2018-05-16T00:41:29.033Z,16.60
2018-05-16T00:43:56.376Z,16.90
2018-05-16T00:46:23.644Z,16.63
2018-05-16T00:48:50.933Z,15.83
2018-05-16T00:51:24.003Z,16.23
2018-05-16T00:53:51.296Z,16.63
2018-05-16T00:56:18.581Z,16.37
2018-05-16T00:58:45.861Z,16.70
2018-05-16T01:01:13.168Z,17.20
2018-05-16T01:03:40.547Z,16.07
2018-05-16T01:06:07.920Z,16.17
2018-05-16T01:08:35.306Z,17.33
2018-05-16T01:11:02.613Z,17.10
2018-05-16T01:13:29.910Z,16.30
2018-05-16T01:15:57.216Z,17.07
2018-05-16T01:18:24.522Z,15.10
2018-05-16T01:20:51.798Z,17.17
2018-05-16T01:23:19.069Z,18.20
2018-05-16T01:25:46.945Z,15.93
2018-05-16T01:28:14.226Z,16.70
2018-05-16T01:30:41.573Z,18.20
2018-05-16T01:33:08.926Z,18.40
2018-05-16T01:35:36.282Z,17.60
2018-05-16T01:38:03.573Z,16.40
2018-05-16T01:40:30.848Z,16.77
2018-05-16T01:42:58.143Z,16.90
2018-05-16T01:45:25.518Z,17.27
2018-05-16T01:47:52.805Z,19.17
2018-05-16T01:50:20.078Z,18.40
2018-05-16T01:52:47.373Z,16.87
2018-05-16T01:55:14.657Z,17.43
2018-05-16T01:57:41.957Z,18.27
2018-05-16T02:00:09.336Z,18.87
2018-05-16T02:02:36.658Z,17.60
2018-05-16T02:05:03.967Z,18.93
2018-05-16T02:07:31.309Z,18.27
2018-05-16T02:09:58.632Z,20.17
2018-05-16T02:12:25.947Z,18.80
2018-05-16T02:14:53.269Z,18.93
2018-05-16T02:17:20.549Z,19.07
2018-05-16T02:19:47.854Z,21.10
2018-05-16T02:22:15.129Z,19.33
2018-05-16T02:24:42.415Z,20.03
2018-05-16T02:27:09.743Z,19.40
2018-05-16T02:29:37.073Z,19.03
2018-05-16T02:32:04.664Z,20.77
2018-05-16T02:34:32.007Z,19.23
2018-05-16T02:36:59.377Z,17.90
2018-05-16T02:39:26.672Z,19.30
2018-05-16T02:41:53.950Z,21.40
2018-05-16T02:44:21.248Z,19.03
2018-05-16T02:46:48.528Z,19.90
2018-05-16T02:49:15.862Z,20.30
2018-05-16T02:51:43.139Z,19.80
2018-05-16T02:54:10.484Z,19.63
2018-05-16T02:56:37.849Z,19.93
2018-05-16T02:59:05.229Z,19.97
2018-05-16T03:01:32.540Z,19.50
2018-05-16T03:04:00.171Z,19.13
2018-05-16T03:06:27.538Z,20.40
2018-05-16T03:08:54.823Z,18.80
2018-05-16T03:11:22.110Z,21.00
2018-05-16T03:13:49.429Z,19.93
2018-05-16T03:16:16.699Z,21.13
2018-05-16T03:18:44.006Z,22.30
2018-05-16T03:21:11.313Z,19.60
2018-05-16T03:23:38.755Z,19.13
2018-05-16T03:26:06.124Z,21.80
2018-05-16T03:28:33.405Z,21.00
2018-05-16T03:31:00.664Z,20.77
2018-05-16T03:33:28.022Z,19.73
2018-05-16T03:35:55.383Z,20.63
2018-05-16T03:38:22.645Z,19.30
2018-05-16T03:40:49.945Z,19.83
2018-05-16T03:43:17.267Z,23.57
2018-05-16T03:45:44.557Z,20.50
2018-05-16T03:48:11.894Z,20.60
2018-05-16T03:50:39.186Z,19.10
2018-05-16T03:53:06.525Z,22.00
2018-05-16T03:55:33.818Z,20.97
2018-05-16T03:58:15.778Z,21.63
2018-05-16T04:00:49.054Z,20.23
2018-05-16T04:03:22.108Z,20.10
2018-05-16T04:05:49.395Z,19.53
2018-05-16T04:08:30.886Z,20.90
2018-05-16T04:10:58.183Z,20.13
2018-05-16T04:13:25.564Z,21.03
2018-05-16T04:15:52.793Z,20.47
2018-05-16T04:18:20.088Z,22.97
2018-05-16T04:20:47.382Z,19.80
2018-05-16T04:23:14.653Z,19.50
2018-05-16T04:25:41.969Z,21.27
2018-05-16T04:28:09.253Z,21.70
2018-05-16T04:30:36.747Z,21.67
2018-05-16T04:33:04.026Z,22.87
2018-05-16T04:35:31.326Z,19.10
2018-05-16T04:37:58.644Z,20.00
2018-05-16T04:40:25.924Z,21.20
2018-05-16T04:42:53.218Z,20.10
2018-05-16T04:45:20.501Z,20.13
2018-05-16T04:47:47.793Z,21.10
2018-05-16T04:50:15.073Z,20.47
2018-05-16T04:52:42.429Z,19.87
2018-05-16T04:55:09.776Z,18.00
2018-05-16T04:57:37.098Z,19.97
2018-05-16T05:00:04.461Z,19.77
2018-05-16T05:02:32.013Z,21.20
2018-05-16T05:04:59.285Z,21.80
2018-05-16T05:07:26.591Z,19.40
2018-05-16T05:09:53.888Z,20.30
2018-05-16T05:12:21.185Z,20.93
2018-05-16T05:14:49.550Z,20.43
2018-05-16T05:17:17.365Z,22.07
2018-05-16T05:19:44.668Z,22.53
2018-05-16T05:22:11.992Z,20.37
2018-05-16T05:24:39.342Z,21.10
2018-05-16T05:27:06.668Z,23.50
2018-05-16T05:29:33.956Z,21.90
2018-05-16T05:32:04.022Z,23.10
2018-05-16T05:34:31.305Z,22.60
2018-05-16T05:36:58.701Z,24.30
2018-05-16T05:39:26.677Z,22.63
2018-05-16T05:41:53.952Z,25.50
2018-05-16T05:44:22.024Z,22.77
2018-05-16T05:46:49.356Z,25.83
2018-05-16T05:49:16.740Z,24.40
2018-05-16T05:51:44.010Z,23.10
2018-05-16T05:54:11.308Z,23.30
2018-05-16T05:56:38.839Z,24.33
2018-05-16T05:59:06.293Z,24.73
2018-05-16T06:01:33.609Z,24.90
2018-05-16T06:04:00.896Z,24.60
2018-05-16T06:06:28.241Z,22.50
2018-05-16T06:08:55.547Z,23.60
2018-05-16T06:11:22.829Z,25.30
2018-05-16T06:13:50.123Z,24.63
2018-05-16T06:16:17.401Z,24.50
2018-05-16T06:18:44.784Z,24.17
2018-05-16T06:21:12.094Z,25.37
2018-05-16T06:23:39.484Z,24.83
2018-05-16T06:26:06.790Z,23.00
2018-05-16T06:28:34.077Z,22.17
2018-05-16T06:31:01.385Z,23.20
2018-05-16T06:33:28.657Z,21.93
2018-05-16T06:35:56.005Z,21.33
2018-05-16T06:38:23.292Z,23.40
2018-05-16T06:40:50.582Z,22.50
2018-05-16T06:43:17.893Z,21.07
2018-05-16T06:45:45.211Z,22.03
2018-05-16T06:48:12.510Z,24.47
2018-05-16T06:50:39.817Z,23.40
2018-05-16T06:53:07.295Z,22.40
2018-05-16T06:55:34.691Z,22.77
2018-05-16T06:58:01.997Z,22.07
2018-05-16T07:00:29.510Z,20.37
2018-05-16T07:02:56.826Z,21.10
2018-05-16T07:05:24.159Z,24.50
2018-05-16T07:07:51.466Z,24.00
2018-05-16T07:10:18.753Z,21.80
2018-05-16T07:12:46.056Z,24.30
2018-05-16T07:15:13.350Z,20.37
2018-05-16T07:17:40.681Z,20.50
2018-05-16T07:20:08.904Z,19.67
2018-05-16T07:22:36.253Z,18.40
2018-05-16T07:25:03.532Z,19.33
2018-05-16T07:27:30.812Z,20.87
2018-05-16T07:29:58.097Z,19.13
2018-05-16T07:32:25.449Z,16.80
2018-05-16T07:34:52.661Z,17.40
2018-05-16T07:37:19.965Z,16.80
2018-05-16T07:39:47.244Z,16.40
2018-05-16T07:42:14.533Z,16.70
2018-05-16T07:44:41.885Z,15.43
2018-05-16T07:47:09.235Z,16.40
2018-05-16T07:49:36.581Z,16.67
2018-05-16T07:52:03.857Z,15.33
2018-05-16T07:54:31.185Z,21.77
2018-05-16T07:56:58.493Z,15.10
2018-05-16T07:59:25.823Z,15.00
2018-05-16T08:01:53.106Z,19.13
2018-05-16T08:04:20.387Z,21.70
2018-05-16T08:06:47.684Z,17.77
2018-05-16T08:09:15.357Z,16.17
2018-05-16T08:11:42.678Z,12.90
2018-05-16T08:14:09.980Z,14.97
2018-05-16T08:16:37.331Z,13.63
2018-05-16T08:19:04.865Z,16.37
2018-05-16T08:21:32.165Z,13.67
2018-05-16T08:23:59.465Z,13.90
2018-05-16T08:26:26.769Z,13.73
2018-05-16T08:28:54.064Z,14.17
2018-05-16T08:31:21.349Z,15.80
2018-05-16T08:33:48.628Z,13.40
2018-05-16T08:36:15.913Z,15.17
2018-05-16T08:38:43.295Z,15.47
2018-05-16T08:41:10.625Z,15.53
2018-05-16T08:43:37.921Z,15.63
2018-05-16T08:46:05.342Z,14.07
2018-05-16T08:48:32.677Z,14.53
2018-05-16T08:50:59.929Z,12.57
2018-05-16T08:53:27.269Z,14.90
2018-05-16T08:55:54.553Z,14.60
2018-05-16T08:58:21.829Z,13.93
2018-05-16T09:00:49.120Z,14.90
2018-05-16T09:03:16.397Z,30.17
2018-05-16T09:05:43.699Z,29.83
2018-05-16T09:08:11.046Z,13.60
2018-05-16T09:10:38.388Z,15.00
2018-05-16T09:13:05.764Z,16.23
2018-05-16T09:15:33.053Z,14.13
2018-05-16T09:18:00.357Z,13.90
2018-05-16T09:20:27.663Z,14.47
2018-05-16T09:22:55.814Z,15.00
2018-05-16T09:25:23.074Z,11.23
2018-05-16T09:27:50.357Z,11.63
2018-05-16T09:30:17.642Z,11.60
2018-05-16T09:32:44.932Z,11.30
2018-05-16T09:35:12.238Z,11.93
2018-05-16T09:37:39.562Z,12.30
2018-05-16T09:40:06.946Z,11.77
2018-05-16T09:42:34.254Z,37.93
2018-05-16T09:45:01.582Z,13.00
2018-05-16T09:47:28.969Z,12.73
2018-05-16T09:49:56.274Z,9.90
2018-05-16T09:52:23.561Z,11.07
2018-05-16T09:54:50.850Z,11.33
2018-05-16T09:57:18.161Z,9.60
2018-05-16T09:59:45.420Z,9.00
2018-05-16T10:02:12.739Z,9.03
2018-05-16T10:04:40.052Z,8.60
2018-05-16T10:07:07.395Z,8.90
2018-05-16T10:09:34.736Z,9.80
2018-05-16T10:12:02.030Z,11.37
2018-05-16T10:14:29.321Z,10.13
2018-05-16T10:16:56.752Z,9.07
2018-05-16T10:19:23.950Z,8.53
2018-05-16T10:21:51.553Z,8.90
2018-05-16T10:24:18.829Z,9.10
2018-05-16T10:26:46.103Z,9.47
2018-05-16T10:29:13.413Z,8.33
2018-05-16T10:31:40.736Z,9.33
2018-05-16T10:34:08.103Z,8.43
2018-05-16T10:36:35.467Z,8.57
2018-05-16T10:39:02.726Z,8.70
2018-05-16T10:41:30.125Z,8.50
2018-05-16T10:43:57.340Z,10.70
2018-05-16T10:46:24.626Z,10.87
2018-05-16T10:48:51.912Z,9.20
2018-05-16T10:51:19.198Z,8.70
2018-05-16T10:53:46.484Z,20.67
2018-05-16T10:56:13.754Z,10.60
2018-05-16T10:58:41.080Z,9.90
2018-05-16T11:01:08.490Z,7.20
2018-05-16T11:03:35.875Z,6.90
2018-05-16T11:06:03.143Z,6.10
2018-05-16T11:08:30.431Z,7.20
2018-05-16T11:10:57.763Z,5.17
2018-05-16T11:13:25.034Z,6.97
2018-05-16T11:15:52.317Z,5.60
2018-05-16T11:18:19.577Z,6.20
2018-05-16T11:20:46.858Z,5.60
2018-05-16T11:23:14.122Z,5.30
2018-05-16T11:25:41.490Z,5.33
2018-05-16T11:28:08.897Z,5.83
2018-05-16T11:30:36.259Z,7.07
2018-05-16T11:33:03.537Z,6.63
2018-05-16T11:35:30.823Z,6.00
2018-05-16T11:37:58.197Z,6.70
2018-05-16T11:40:25.467Z,7.20
2018-05-16T11:42:53.508Z,6.37
2018-05-16T11:45:20.836Z,6.33
2018-05-16T11:47:48.080Z,5.53
2018-05-16T11:50:15.334Z,5.20
2018-05-16T11:52:42.646Z,3.87
2018-05-16T11:55:09.963Z,3.67
2018-05-16T11:57:37.327Z,5.20
2018-05-16T12:00:04.647Z,4.50
2018-05-16T12:02:31.918Z,4.57
2018-05-16T12:04:59.208Z,4.87
2018-05-16T12:07:26.530Z,5.27
2018-05-16T12:09:53.843Z,4.43
2018-05-16T12:12:21.113Z,4.90
2018-05-16T12:14:48.401Z,4.50
2018-05-16T12:17:15.668Z,4.90
2018-05-16T12:19:43.017Z,5.43
2018-05-16T12:22:10.348Z,2.70
2018-05-16T12:24:37.656Z,3.37
2018-05-16T12:27:05.017Z,4.03
2018-05-16T12:29:32.292Z,3.80
2018-05-16T12:31:59.578Z,4.37
2018-05-16T12:34:26.925Z,3.27
2018-05-16T12:36:54.240Z,3.60
2018-05-16T12:39:21.535Z,4.30
2018-05-16T12:41:48.789Z,3.90
2018-05-16T12:44:16.081Z,3.33
2018-05-16T12:46:43.443Z,3.87
2018-05-16T12:49:10.692Z,3.03
2018-05-16T12:51:38.069Z,3.80
2018-05-16T12:54:05.413Z,3.33
2018-05-16T12:56:32.670Z,3.73
2018-05-16T12:58:59.953Z,3.13
2018-05-16T13:01:27.298Z,3.70
2018-05-16T13:03:54.621Z,4.07
2018-05-16T13:08:55.478Z,4.30
2018-05-16T13:11:22.731Z,3.97
2018-05-16T13:13:49.999Z,5.10
2018-05-16T13:16:17.280Z,4.60
2018-05-16T13:18:44.554Z,6.50
2018-05-16T13:21:11.922Z,4.80
2018-05-16T13:23:39.258Z,4.23
2018-05-16T13:26:06.620Z,5.50
2018-05-16T13:28:33.897Z,5.10
2018-05-16T13:31:01.157Z,5.63
2018-05-16T13:33:28.461Z,5.60
2018-05-16T13:35:55.787Z,4.10
2018-05-16T13:38:23.081Z,5.50
2018-05-16T13:40:50.351Z,5.60
2018-05-16T13:43:17.618Z,3.83
2018-05-16T13:45:44.877Z,5.10
2018-05-16T13:48:12.169Z,5.33
2018-05-16T13:50:39.585Z,5.00
2018-05-16T13:53:06.949Z,4.33
2018-05-16T13:55:34.220Z,5.33
2018-05-16T13:58:01.514Z,5.10
2018-05-16T14:00:28.817Z,5.10
2018-05-16T14:02:56.117Z,5.40
2018-05-16T14:05:23.400Z,5.30
2018-05-16T14:07:50.881Z,5.57
2018-05-16T14:10:18.160Z,5.87
2018-05-16T14:12:45.443Z,5.00
2018-05-16T14:15:12.792Z,5.97
2018-05-16T14:17:40.066Z,6.57
2018-05-16T14:20:07.428Z,5.90
2018-05-16T14:22:34.683Z,6.37
2018-05-16T14:25:01.932Z,7.20
2018-05-16T14:27:29.213Z,6.13
2018-05-16T14:29:56.578Z,7.47
2018-05-16T14:32:23.856Z,6.70
2018-05-16T14:34:51.141Z,7.60
2018-05-16T14:37:18.419Z,8.50
2018-05-16T14:39:45.693Z,7.27
2018-05-16T14:42:12.995Z,9.03
2018-05-16T14:44:41.166Z,8.20
2018-05-16T14:47:08.523Z,7.70
2018-05-16T14:49:35.842Z,7.47
2018-05-16T14:52:03.124Z,8.10
2018-05-16T14:54:30.415Z,7.13
2018-05-16T14:56:57.717Z,8.53
2018-05-16T14:59:24.985Z,6.23
2018-05-16T15:01:52.291Z,5.77
2018-05-16T15:04:19.565Z,5.80
2018-05-16T15:06:46.842Z,6.10
2018-05-16T15:09:14.128Z,5.20
2018-05-16T15:11:41.450Z,5.33
2018-05-16T15:14:08.828Z,4.43
2018-05-16T15:16:36.217Z,6.33
2018-05-16T15:19:03.498Z,6.80
2018-05-16T15:21:30.764Z,6.97
2018-05-16T15:23:58.049Z,7.27
2018-05-16T15:26:25.350Z,6.70
2018-05-16T15:28:52.957Z,8.10
2018-05-16T15:31:20.236Z,7.33
2018-05-16T15:33:47.496Z,7.53
2018-05-16T15:36:14.770Z,7.07
2018-05-16T15:38:42.086Z,7.20
2018-05-16T15:41:09.444Z,8.27
2018-05-16T15:43:36.863Z,8.70
2018-05-16T15:46:04.151Z,8.50
2018-05-16T15:48:31.406Z,9.03
2018-05-16T15:50:58.793Z,9.33
2018-05-16T15:53:26.121Z,8.60
2018-05-16T15:55:53.405Z,11.17
2018-05-16T15:58:20.685Z,10.20
2018-05-16T16:00:47.974Z,11.20
2018-05-16T16:03:15.276Z,11.73
2018-05-16T16:05:42.642Z,11.40
2018-05-16T16:08:10.002Z,13.63
2018-05-16T16:10:37.333Z,10.33
2018-05-16T16:13:04.688Z,5.83
2018-05-16T16:15:31.993Z,5.03
2018-05-16T16:17:59.327Z,7.17
2018-05-16T16:20:26.605Z,5.00
2018-05-16T16:22:53.873Z,3.83
2018-05-16T16:25:21.142Z,3.03
2018-05-16T16:27:48.422Z,3.93
2018-05-16T16:30:15.775Z,5.73
2018-05-16T16:32:43.156Z,3.70
2018-05-16T16:35:10.416Z,2.80
2018-05-16T16:37:37.821Z,3.20
2018-05-16T16:40:05.171Z,3.87
2018-05-16T16:42:32.439Z,3.57
2018-05-16T16:44:59.721Z,4.10
2018-05-16T16:47:27.037Z,5.07
2018-05-16T16:49:54.313Z,5.80
2018-05-16T16:52:21.598Z,5.33
2018-05-16T16:54:48.870Z,4.60
2018-05-16T16:57:16.557Z,4.83
2018-05-16T16:59:43.824Z,5.07
2018-05-16T17:02:11.162Z,4.97
2018-05-16T17:04:38.579Z,5.33
2018-05-16T17:07:05.970Z,6.87
2018-05-16T17:09:33.293Z,5.50
2018-05-16T17:12:00.564Z,6.10
2018-05-16T17:14:27.849Z,5.60
2018-05-16T17:16:55.139Z,5.87
2018-05-16T17:19:22.431Z,5.90
2018-05-16T17:21:49.686Z,6.03
2018-05-16T17:24:16.961Z,5.70
2018-05-16T17:26:44.280Z,5.83
2018-05-16T17:29:12.430Z,6.83
2018-05-16T17:31:43.697Z,7.30
2018-05-16T17:34:11.157Z,5.87
2018-05-16T17:36:38.701Z,6.70
2018-05-16T17:39:06.491Z,8.03
2018-05-16T17:41:33.893Z,6.57
2018-05-16T17:44:01.314Z,7.90
2018-05-16T17:46:28.658Z,7.43
2018-05-16T17:48:56.034Z,8.53
2018-05-16T17:51:23.322Z,7.00
2018-05-16T17:53:50.713Z,6.73
2018-05-16T17:56:17.914Z,7.07
2018-05-16T17:58:45.225Z,6.70
2018-05-16T18:01:13.421Z,6.33
2018-05-16T18:03:40.754Z,7.40
2018-05-16T18:06:08.286Z,7.60
2018-05-16T18:08:35.957Z,6.73
2018-05-16T18:11:03.329Z,5.97
2018-05-16T18:13:47.359Z,5.80
2018-05-16T18:16:33.296Z,5.40
2018-05-16T18:19:00.568Z,6.13
2018-05-16T18:21:27.882Z,6.73
2018-05-16T18:23:55.207Z,6.93
2018-05-16T18:26:22.528Z,5.50
2018-05-16T18:28:49.805Z,6.00
2018-05-16T18:31:17.117Z,5.60
2018-05-16T18:33:44.683Z,5.50
2018-05-16T18:36:12.095Z,5.77
2018-05-16T18:38:42.547Z,6.40
2018-05-16T18:41:10.031Z,6.73
2018-05-16T18:43:37.456Z,6.10
2018-05-16T18:46:04.823Z,6.60
2018-05-16T18:48:32.326Z,6.53
2018-05-16T18:50:59.685Z,6.80
2018-05-16T18:53:26.987Z,7.43
2018-05-16T18:55:54.322Z,7.40
2018-05-16T18:58:21.590Z,7.67
2018-05-16T19:00:48.943Z,9.07
2018-05-16T19:03:16.404Z,8.47
2018-05-16T19:05:43.939Z,7.83
2018-05-16T19:08:11.556Z,8.63
2018-05-16T19:10:39.208Z,9.17
2018-05-16T19:13:06.785Z,10.00
2018-05-16T19:15:34.151Z,10.30
2018-05-16T19:18:02.383Z,9.50
2018-05-16T19:20:29.746Z,9.37
2018-05-16T19:22:57.085Z,10.00
2018-05-16T19:25:24.406Z,10.70
2018-05-16T19:27:51.719Z,11.37
2018-05-16T19:30:19.918Z,9.97
2018-05-16T19:32:47.447Z,11.93
2018-05-16T19:35:14.809Z,12.17
2018-05-16T19:37:42.847Z,11.00
2018-05-16T19:40:10.291Z,11.73
2018-05-16T19:42:37.666Z,12.90
2018-05-16T19:45:05.079Z,13.67
2018-05-16T19:47:32.583Z,13.20
2018-05-16T19:49:59.914Z,14.37
2018-05-16T19:52:27.288Z,14.70
2018-05-16T19:54:54.673Z,14.93
2018-05-16T19:57:22.053Z,14.90
2018-05-16T19:59:49.740Z,15.20
2018-05-16T20:02:17.059Z,16.23
2018-05-16T20:04:44.386Z,15.00
2018-05-16T20:07:11.813Z,15.73
2018-05-16T20:09:39.286Z,16.73
2018-05-16T20:12:06.757Z,17.53
2018-05-16T20:14:34.508Z,16.17
2018-05-16T20:17:01.798Z,16.87
2018-05-16T20:19:29.125Z,18.33
2018-05-16T20:21:56.479Z,17.03
2018-05-16T20:24:23.781Z,18.23
2018-05-16T20:26:51.105Z,18.17
2018-05-16T20:29:18.459Z,17.60
2018-05-16T20:31:45.707Z,19.07
2018-05-16T20:34:13.050Z,18.10
2018-05-16T20:36:40.542Z,18.30
2018-05-16T20:39:08.072Z,17.90
2018-05-16T20:41:35.808Z,17.57
2018-05-16T20:44:03.898Z,18.33
2018-05-16T20:46:31.308Z,18.67
2018-05-16T20:48:58.746Z,18.60
2018-05-16T20:51:26.106Z,18.60
2018-05-16T20:53:53.435Z,18.27
2018-05-16T20:56:20.770Z,17.57
2018-05-16T20:58:48.080Z,19.40
2018-05-16T21:01:15.395Z,18.90
2018-05-16T21:03:42.674Z,20.57
2018-05-16T21:06:10.005Z,21.50
2018-05-16T21:08:37.406Z,19.77
2018-05-16T21:11:04.730Z,19.63
2018-05-16T21:13:32.071Z,19.93
2018-05-16T21:15:59.370Z,20.50
2018-05-16T21:18:26.674Z,20.40
2018-05-16T21:20:54.006Z,21.30
2018-05-16T21:25:55.190Z,22.57
2018-05-16T21:28:22.489Z,21.53
2018-05-16T21:30:49.812Z,21.40
2018-05-16T21:33:17.122Z,21.27
2018-05-16T21:35:44.423Z,20.20
2018-05-16T21:38:11.831Z,19.77
2018-05-16T21:40:39.233Z,21.73
2018-05-16T21:43:07.067Z,21.93
2018-05-16T21:45:34.400Z,21.67
2018-05-16T21:48:01.706Z,22.70
2018-05-16T21:50:29.022Z,22.13
2018-05-16T21:52:56.478Z,22.40
2018-05-16T21:55:23.782Z,22.87
2018-05-16T21:57:51.109Z,21.73
2018-05-16T22:00:18.413Z,20.67
2018-05-16T22:02:46.069Z,22.27
2018-05-16T22:05:13.666Z,20.10
2018-05-16T22:07:41.048Z,21.03
2018-05-16T22:10:08.477Z,21.03
2018-05-16T22:12:36.136Z,23.27
2018-05-16T22:15:03.505Z,23.43
2018-05-16T22:17:30.798Z,23.30
2018-05-16T22:19:58.132Z,23.67
2018-05-16T22:22:25.488Z,23.87
2018-05-16T22:24:52.810Z,21.60
2018-05-16T22:27:20.159Z,21.90
2018-05-16T22:29:47.626Z,20.97
2018-05-16T22:32:20.694Z,22.33
2018-05-16T22:34:53.546Z,23.33
2018-05-16T22:37:26.613Z,22.80
2018-05-16T22:39:59.595Z,22.53
2018-05-16T22:42:29.247Z,21.80
2018-05-16T22:44:59.554Z,21.50
2018-05-16T22:47:26.904Z,21.80
2018-05-16T22:49:54.203Z,21.07
2018-05-16T22:52:21.505Z,23.17
2018-05-16T22:54:48.780Z,20.30
2018-05-16T22:57:16.062Z,19.63
2018-05-16T23:02:17.130Z,19.47
2018-05-16T23:04:44.452Z,19.47
2018-05-16T23:07:11.844Z,21.23
2018-05-16T23:09:39.170Z,19.50
2018-05-16T23:12:06.785Z,17.60
2018-05-16T23:14:34.105Z,19.57
2018-05-16T23:17:01.965Z,20.77
2018-05-16T23:19:29.435Z,18.13
2018-05-16T23:21:56.908Z,18.13
2018-05-16T23:24:24.233Z,19.00
2018-05-16T23:26:51.511Z,17.20
2018-05-16T23:29:18.801Z,20.40
2018-05-16T23:31:46.078Z,20.10
2018-05-16T23:34:13.449Z,18.30
2018-05-16T23:36:40.986Z,18.10
2018-05-16T23:39:08.443Z,19.40
2018-05-16T23:41:36.584Z,17.67
2018-05-16T23:44:03.869Z,17.40
2018-05-16T23:46:31.173Z,17.10
2018-05-16T23:48:58.462Z,17.03
2018-05-16T23:51:25.755Z,17.20
2018-05-16T23:53:53.049Z,15.80
2018-05-16T23:56:20.344Z,16.70
2018-05-16T23:58:47.667Z,16.37
